Time;durP1;ratioP1;P1;durP2;ratioP2;P2;SDS_P1;SDS_P2;PMS_P1;PMS_P2;Temp;Humidity;BMP_temperature;BMP_pressure;BME280_temperature;BME280_humidity;BME280_pressure;Samples;Min_cycle;Max_cycle;Signal;HPM_P1;HPM_P2
2023/04/08 00:00:40;;;;;;;3.10;2.50;;;;;;;6.08;nan;97658.41;1729013;75;24601;-78
2023/04/08 00:03:09;;;;;;;3.00;2.60;;;;;;;6.03;nan;97645.38;1728087;75;24314;-76
2023/04/08 00:05:39;;;;;;;3.00;2.40;;;;;;;6.10;nan;97653.28;1729486;75;24398;-77
2023/04/08 00:08:10;;;;;;;3.80;2.90;;;;;;;6.06;nan;97651.88;1729512;75;24774;-75
2023/04/08 00:10:39;;;;;;;4.00;3.20;;;;;;;5.94;nan;97648.84;1731274;75;24768;-74
2023/04/08 00:13:12;;;;;;;3.90;2.80;;;;;;;6.01;nan;97650.50;1730762;75;24357;-78
2023/04/08 00:15:42;;;;;;;3.60;3.10;;;;;;;5.85;nan;97651.47;1729564;75;24459;-76
2023/04/08 00:18:12;;;;;;;4.20;3.70;;;;;;;5.88;nan;97645.13;1728853;75;25064;-76
2023/04/08 00:20:41;;;;;;;4.30;3.60;;;;;;;5.96;nan;97649.16;1729337;75;24850;-77
2023/04/08 00:23:11;;;;;;;3.50;3.10;;;;;;;5.96;nan;97640.22;1728848;75;25203;-78
2023/04/08 00:25:41;;;;;;;4.00;3.00;;;;;;;5.91;nan;97644.22;1729505;75;24276;-77
2023/04/08 00:28:14;;;;;;;3.70;3.10;;;;;;;5.93;nan;97638.38;1728455;75;24255;-77
2023/04/08 00:30:43;;;;;;;3.90;2.80;;;;;;;5.97;nan;97641.75;1729235;75;24979;-75
2023/04/08 00:33:13;;;;;;;3.10;2.80;;;;;;;5.92;nan;97634.91;1728606;75;24149;-75
2023/04/08 00:35:43;;;;;;;3.70;2.90;;;;;;;5.92;nan;97643.06;1729511;75;25003;-77
2023/04/08 00:38:12;;;;;;;3.00;2.20;;;;;;;5.96;nan;97638.28;1728599;75;24254;-76
2023/04/08 00:40:42;;;;;;;4.90;3.40;;;;;;;5.92;nan;97632.19;1729865;75;24227;-76
2023/04/08 00:43:15;;;;;;;3.10;2.50;;;;;;;5.94;nan;97643.41;1728936;75;24397;-78
2023/04/08 00:45:45;;;;;;;4.50;3.10;;;;;;;5.92;nan;97645.03;1729239;75;25095;-75
2023/04/08 00:48:15;;;;;;;4.20;3.00;;;;;;;5.93;nan;97643.81;1728139;75;25099;-75
2023/04/08 00:50:46;;;;;;;3.70;2.90;;;;;;;5.93;nan;97647.28;1729045;75;24751;-78
2023/04/08 00:53:19;;;;;;;3.20;2.80;;;;;;;5.94;nan;97637.97;1727848;75;25057;-77
2023/04/08 00:55:48;;;;;;;3.00;2.60;;;;;;;5.91;nan;97643.50;1728704;75;24877;-76
2023/04/08 00:58:21;;;;;;;3.50;3.10;;;;;;;5.87;nan;97649.06;1728318;75;24581;-76
2023/04/08 01:01:00;;;;;;;3.80;2.90;;;;;;;5.90;nan;97645.44;1729443;75;24181;-76
2023/04/08 01:03:49;;;;;;;3.50;2.80;;;;;;;5.95;nan;97644.16;1728299;75;24358;-77
2023/04/08 01:06:30;;;;;;;3.10;2.80;;;;;;;5.82;nan;97638.78;1729573;75;24187;-77
2023/04/08 01:09:01;;;;;;;4.70;3.60;;;;;;;5.76;nan;97633.13;1727988;75;24209;-77
2023/04/08 01:11:34;;;;;;;4.50;3.50;;;;;;;5.70;nan;97642.28;1729351;75;24248;-78
2023/04/08 01:14:09;;;;;;;4.00;3.60;;;;;;;5.73;nan;97636.00;1727736;75;24148;-77
2023/04/08 01:16:41;;;;;;;5.50;3.40;;;;;;;5.78;nan;97638.13;1729606;75;24848;-76
2023/04/08 01:19:12;;;;;;;4.30;3.60;;;;;;;5.84;nan;97625.47;1728947;75;24216;-79
2023/04/08 01:21:43;;;;;;;3.50;3.00;;;;;;;5.85;nan;97631.69;1729274;75;24489;-77
2023/04/08 01:24:19;;;;;;;3.30;2.80;;;;;;;5.83;nan;97631.38;1728201;75;24236;-77
2023/04/08 01:26:52;;;;;;;4.20;3.50;;;;;;;5.62;nan;97641.03;1729512;75;24382;-79
2023/04/08 01:29:22;;;;;;;5.00;4.00;;;;;;;5.61;nan;97636.81;1727769;75;24933;-76
2023/04/08 01:31:53;;;;;;;5.20;3.80;;;;;;;5.62;nan;97636.38;1729587;75;24695;-78
2023/04/08 01:34:25;;;;;;;4.00;3.60;;;;;;;5.68;nan;97631.88;1728211;75;24205;-77
2023/04/08 01:36:55;;;;;;;4.10;3.70;;;;;;;5.60;nan;97635.28;1728547;75;25214;-77
2023/04/08 01:39:27;;;;;;;5.40;4.30;;;;;;;5.52;nan;97630.13;1727958;75;25032;-78
2023/04/08 01:42:01;;;;;;;4.60;3.80;;;;;;;5.61;nan;97632.16;1729698;75;24585;-76
2023/04/08 01:44:32;;;;;;;4.40;3.80;;;;;;;5.60;nan;97630.63;1728686;75;24275;-76
2023/04/08 01:47:03;;;;;;;4.70;3.60;;;;;;;5.57;nan;97630.75;1729858;75;25711;-74
2023/04/08 01:49:34;;;;;;;4.20;3.80;;;;;;;5.64;nan;97636.69;1728838;75;24282;-77
2023/04/08 01:52:04;;;;;;;3.90;3.50;;;;;;;5.64;nan;97633.97;1729393;75;24184;-78
2023/04/08 01:54:34;;;;;;;6.30;5.10;;;;;;;5.51;nan;97639.47;1728898;75;24610;-77
2023/04/08 01:57:08;;;;;;;5.70;4.70;;;;;;;5.59;nan;97633.78;1729951;75;24042;-75
2023/04/08 01:59:40;;;;;;;4.50;3.90;;;;;;;5.66;nan;97628.09;1728599;75;24162;-76
2023/04/08 02:02:12;;;;;;;3.70;3.10;;;;;;;5.68;nan;97621.03;1729753;75;24715;-77
2023/04/08 02:04:42;;;;;;;4.10;3.70;;;;;;;5.58;nan;97624.88;1728407;75;24369;-77
2023/04/08 02:07:13;;;;;;;3.80;3.30;;;;;;;5.65;nan;97626.56;1729339;75;24204;-75
2023/04/08 02:09:42;;;;;;;3.50;3.00;;;;;;;5.67;nan;97630.34;1728749;75;24182;-77
2023/04/08 02:12:15;;;;;;;3.70;3.30;;;;;;;5.65;nan;97638.22;1729969;75;26333;-76
2023/04/08 02:14:46;;;;;;;4.00;3.50;;;;;;;5.66;nan;97634.28;1728500;75;24146;-77
2023/04/08 02:17:21;;;;;;;4.00;3.60;;;;;;;5.64;nan;97633.97;1729738;75;24493;-77
2023/04/08 02:19:58;;;;;;;4.30;3.80;;;;;;;5.55;nan;97640.09;1728538;75;24617;-75
2023/04/08 02:22:38;;;;;;;5.80;4.70;;;;;;;5.52;nan;97635.53;1729547;75;24226;-75
2023/04/08 02:25:13;;;;;;;4.90;4.10;;;;;;;5.54;nan;97637.81;1729374;75;24121;-76
2023/04/08 02:27:48;;;;;;;5.10;4.40;;;;;;;5.50;nan;97646.09;1728692;75;24190;-74
2023/04/08 02:30:19;;;;;;;5.90;4.70;;;;;;;5.44;nan;97641.69;1729034;75;24324;-74
2023/04/08 02:32:50;;;;;;;4.10;3.70;;;;;;;5.54;nan;97641.28;1728904;75;24176;-73
2023/04/08 02:35:21;;;;;;;6.50;5.00;;;;;;;5.60;nan;97640.72;1729311;75;24910;-77
2023/04/08 02:37:51;;;;;;;4.80;4.20;;;;;;;5.59;nan;97639.22;1728801;75;25107;-76
2023/04/08 02:40:28;;;;;;;4.00;3.60;;;;;;;5.61;nan;97640.28;1729033;75;24955;-77
2023/04/08 02:43:01;;;;;;;;;;;;;;;5.59;nan;97639.22;1728331;75;24642;-77
2023/04/08 02:45:35;;;;;;;5.50;4.90;;;;;;;5.52;nan;97635.53;1729906;75;24416;-75
2023/04/08 02:48:05;;;;;;;4.40;4.00;;;;;;;5.65;nan;97627.34;1728307;75;24180;-78
2023/04/08 02:50:35;;;;;;;4.10;3.70;;;;;;;5.62;nan;97633.66;1729347;75;24152;-74
2023/04/08 02:53:05;;;;;;;3.30;2.90;;;;;;;5.65;nan;97627.34;1728790;83;24107;-79
2023/04/08 02:55:34;;;;;;;3.40;2.90;;;;;;;5.65;nan;97624.63;1730124;75;24293;-76
2023/04/08 02:58:07;;;;;;;3.50;3.00;;;;;;;5.65;nan;97632.00;1727999;75;24597;-76
2023/04/08 03:00:38;;;;;;;3.40;2.80;;;;;;;5.61;nan;97632.16;1729998;75;24245;-79
2023/04/08 03:03:08;;;;;;;3.90;3.30;;;;;;;5.68;nan;97631.13;1728785;75;25562;-77
2023/04/08 03:05:37;;;;;;;3.20;2.70;;;;;;;5.59;nan;97633.78;1729674;75;24159;-76
2023/04/08 03:08:08;;;;;;;3.80;3.10;;;;;;;5.61;nan;97636.81;1728642;75;24299;-75
2023/04/08 03:10:38;;;;;;;3.70;3.10;;;;;;;5.60;nan;97636.03;1729416;75;24382;-78
2023/04/08 03:13:10;;;;;;;5.80;3.90;;;;;;;5.55;nan;97633.91;1728572;75;24139;-77
2023/04/08 03:15:40;;;;;;;4.50;3.70;;;;;;;5.47;nan;97636.13;1729857;75;24145;-77
2023/04/08 03:18:09;;;;;;;4.70;3.50;;;;;;;5.52;nan;97634.78;1728482;75;24235;-78
2023/04/08 03:20:39;;;;;;;4.50;3.60;;;;;;;5.52;nan;97627.41;1729528;75;24210;-77
2023/04/08 03:23:09;;;;;;;4.70;4.00;;;;;;;5.50;nan;97632.50;1725108;75;24924;-74
2023/04/08 03:25:38;;;;;;;5.70;4.80;;;;;;;5.33;nan;97631.94;1727050;75;24167;-77
2023/04/08 03:28:10;;;;;;;7.20;6.10;;;;;;;5.24;nan;97626.47;1725338;75;25279;-75
2023/04/08 03:30:40;;;;;;;7.50;6.70;;;;;;;5.19;nan;97628.97;1726432;83;24172;-75
2023/04/08 03:33:10;;;;;;;8.80;7.40;;;;;;;5.15;nan;97628.31;1725463;75;24610;-73
2023/04/08 03:35:39;;;;;;;7.80;6.90;;;;;;;5.21;nan;97632.75;1726404;75;24943;-78
2023/04/08 03:38:09;;;;;;;7.00;6.30;;;;;;;5.29;nan;97650.31;1724811;75;24199;-76
2023/04/08 03:40:39;;;;;;;5.80;5.20;;;;;;;5.30;nan;97643.69;1726633;75;24201;-77
2023/04/08 03:43:11;;;;;;;7.30;6.60;;;;;;;5.23;nan;97651.31;1724529;75;24178;-79
2023/04/08 03:45:41;;;;;;;6.50;5.80;;;;;;;5.23;nan;97648.59;1726575;75;24216;-75
2023/04/08 03:48:11;;;;;;;10.50;7.60;;;;;;;5.28;nan;97656.94;1724578;75;24714;-76
2023/04/08 03:50:40;;;;;;;7.90;6.70;;;;;;;5.24;nan;97656.31;1725388;75;24162;-77
2023/04/08 03:53:11;;;;;;;8.00;7.20;;;;;;;5.14;nan;97651.97;1724594;75;25098;-75
2023/04/08 03:55:41;;;;;;;8.50;7.60;;;;;;;5.14;nan;97649.28;1726999;75;25018;-79
2023/04/08 03:58:13;;;;;;;7.10;6.40;;;;;;;5.11;nan;97656.34;1724565;75;24545;-76
2023/04/08 04:00:43;;;;;;;6.90;6.00;;;;;;;5.13;nan;97659.38;1725666;75;24798;-77
2023/04/08 04:03:12;;;;;;;7.90;6.50;;;;;;;5.15;nan;97664.38;1724171;75;24439;-74
2023/04/08 04:05:42;;;;;;;6.40;5.40;;;;;;;5.23;nan;97668.34;1725660;75;24613;-73
2023/04/08 04:08:12;;;;;;;5.20;4.70;;;;;;;5.32;nan;97682.00;1724473;75;24682;-77
2023/04/08 04:10:41;;;;;;;4.60;4.10;;;;;;;5.29;nan;97679.41;1725244;75;24857;-76
2023/04/08 04:13:13;;;;;;;4.50;4.00;;;;;;;5.33;nan;97685.47;1723850;75;25113;-77
2023/04/08 04:15:43;;;;;;;4.30;3.60;;;;;;;5.38;nan;97686.88;1727308;75;24283;-77
2023/04/08 04:18:13;;;;;;;5.20;4.30;;;;;;;5.22;nan;97679.63;1726846;75;24507;-76
2023/04/08 04:20:43;;;;;;;5.50;5.00;;;;;;;5.23;nan;97681.16;1728694;75;24252;-76
2023/04/08 04:23:13;;;;;;;4.80;4.30;;;;;;;5.26;nan;97689.16;1727902;75;24795;-75
2023/04/08 04:25:44;;;;;;;5.20;4.10;;;;;;;5.31;nan;97696.00;1730017;75;24166;-75
2023/04/08 04:28:16;;;;;;;4.30;3.80;;;;;;;5.35;nan;97696.66;1728905;75;24219;-77
2023/04/08 04:30:45;;;;;;;4.20;3.80;;;;;;;5.28;nan;97700.34;1728895;75;24137;-75
2023/04/08 04:33:15;;;;;;;5.60;4.90;;;;;;;5.24;nan;97701.66;1727380;75;25192;-77
2023/04/08 04:35:45;;;;;;;5.60;4.70;;;;;;;5.20;nan;97698.34;1729031;75;24655;-76
2023/04/08 04:38:15;;;;;;;4.80;4.20;;;;;;;5.19;nan;97705.69;1727631;75;24839;-75
2023/04/08 04:40:44;;;;;;;5.00;4.30;;;;;;;5.18;nan;97704.19;1728683;75;24144;-75
2023/04/08 04:43:17;;;;;;;5.20;4.40;;;;;;;5.16;nan;97712.00;1727333;75;25068;-77
2023/04/08 04:45:46;;;;;;;5.00;4.50;;;;;;;5.12;nan;97709.41;1728242;75;24239;-76
2023/04/08 04:48:16;;;;;;;5.70;5.10;;;;;;;5.06;nan;97710.41;1726958;75;24179;-76
2023/04/08 04:50:45;;;;;;;5.10;4.60;;;;;;;5.11;nan;97718.75;1728135;75;24549;-74
2023/04/08 04:53:15;;;;;;;4.90;4.40;;;;;;;5.25;nan;97722.94;1726783;75;24149;-74
2023/04/08 04:55:44;;;;;;;5.00;4.50;;;;;;;5.20;nan;97720.78;1728228;75;24193;-76
2023/04/08 04:58:17;;;;;;;6.80;5.30;;;;;;;5.18;nan;97725.91;1725993;75;25017;-76
2023/04/08 05:00:47;;;;;;;11.10;8.30;;;;;;;5.08;nan;97729.72;1726685;75;24837;-77
2023/04/08 05:03:17;;;;;;;7.50;6.50;;;;;;;5.21;nan;97724.25;1725603;75;24733;-77
2023/04/08 05:05:54;;;;;;;5.70;5.10;;;;;;;5.18;nan;97731.31;1727232;75;24133;-75
2023/04/08 05:08:24;;;;;;;5.90;5.00;;;;;;;5.13;nan;97734.59;1726078;75;25295;-76
2023/04/08 05:10:54;;;;;;;5.50;4.50;;;;;;;5.20;nan;97730.91;1726948;75;24200;-73
2023/04/08 05:13:27;;;;;;;5.30;4.60;;;;;;;5.18;nan;97738.72;1724979;75;24605;-77
2023/04/08 05:15:56;;;;;;;4.80;4.30;;;;;;;5.10;nan;97741.66;1726148;75;24117;-77
2023/04/08 05:18:26;;;;;;;4.90;4.40;;;;;;;5.13;nan;97743.50;1724595;75;24335;-76
2023/04/08 05:20:55;;;;;;;6.90;5.10;;;;;;;5.03;nan;97744.59;1726070;75;25830;-74
2023/04/08 05:23:25;;;;;;;5.60;4.80;;;;;;;5.08;nan;97749.47;1725124;75;24690;-77
2023/04/08 05:25:55;;;;;;;5.80;5.20;;;;;;;5.10;nan;97747.09;1726675;75;24238;-75
2023/04/08 05:28:27;;;;;;;6.80;6.10;;;;;;;5.08;nan;97744.03;1725274;75;25160;-76
2023/04/08 05:30:57;;;;;;;6.60;5.60;;;;;;;5.00;nan;97752.84;1725559;75;24950;-74
2023/04/08 05:33:26;;;;;;;7.30;5.50;;;;;;;5.06;nan;97745.69;1724974;75;24811;-76
2023/04/08 05:35:56;;;;;;;10.30;8.70;;;;;;;5.09;nan;97755.66;1726459;75;24618;-75
2023/04/08 05:38:25;;;;;;;7.80;6.90;;;;;;;5.08;nan;97756.84;1724771;75;24869;-74
2023/04/08 05:40:55;;;;;;;6.70;6.00;;;;;;;5.05;nan;97755.00;1726207;75;24185;-75
2023/04/08 05:43:27;;;;;;;5.70;5.20;;;;;;;5.09;nan;97759.13;1724824;75;24937;-75
2023/04/08 05:45:57;;;;;;;5.10;4.60;;;;;;;5.10;nan;97754.47;1726530;75;24263;-75
2023/04/08 05:48:29;;;;;;;6.40;5.30;;;;;;;5.03;nan;97763.59;1724732;75;25694;-74
2023/04/08 05:50:59;;;;;;;5.30;4.30;;;;;;;5.07;nan;97769.63;1726070;75;24122;-77
2023/04/08 05:53:29;;;;;;;6.30;5.10;;;;;;;5.00;nan;97775.28;1724589;75;26035;-75
2023/04/08 05:55:58;;;;;;;5.80;5.20;;;;;;;4.93;nan;97775.53;1725753;75;24975;-74
2023/04/08 05:58:31;;;;;;;6.60;5.90;;;;;;;4.97;nan;97768.03;1724931;75;24080;-75
2023/04/08 06:01:00;;;;;;;6.20;5.60;;;;;;;5.03;nan;97771.72;1725971;75;24309;-77
2023/04/08 06:03:32;;;;;;;6.70;5.90;;;;;;;4.90;nan;97773.66;1723904;75;24810;-75
2023/04/08 06:06:01;;;;;;;6.10;5.40;;;;;;;5.05;nan;97776.69;1725401;75;24161;-75
2023/04/08 06:08:31;;;;;;;6.20;5.40;;;;;;;5.00;nan;97779.97;1724020;75;24863;-75
2023/04/08 06:11:00;;;;;;;7.20;6.20;;;;;;;5.02;nan;97780.28;1725753;75;25035;-75
2023/04/08 06:13:33;;;;;;;6.70;6.00;;;;;;;4.97;nan;97781.59;1724707;75;24725;-75
2023/04/08 06:16:13;;;;;;;7.70;6.40;;;;;;;4.98;nan;97776.91;1726482;75;24240;-75
2023/04/08 06:18:43;;;;;;;7.70;6.60;;;;;;;5.00;nan;97785.38;1724797;75;24262;-77
2023/04/08 06:21:13;;;;;;;7.20;6.50;;;;;;;4.96;nan;97790.19;1725435;83;24340;-74
2023/04/08 06:23:43;;;;;;;13.30;11.10;;;;;;;4.84;nan;97784.31;1725097;75;24862;-75
2023/04/08 06:26:15;;;;;;;12.60;11.30;;;;;;;4.80;nan;97785.59;1726424;75;24257;-76
2023/04/08 06:28:48;;;;;;;20.80;18.00;;;;;;;4.30;nan;97795.94;1724517;75;24186;-75
2023/04/08 06:31:17;;;;;;;22.40;20.00;;;;;;;4.25;nan;97793.75;1725869;75;24263;-76
2023/04/08 06:33:47;;;;;;;21.70;19.40;;;;;;;4.17;nan;97801.31;1725032;75;25026;-76
2023/04/08 06:36:16;;;;;;;22.40;20.10;;;;;;;4.20;nan;97811.28;1726436;75;25155;-75
2023/04/08 06:38:46;;;;;;;20.80;18.70;;;;;;;4.20;nan;97813.25;1724786;75;24708;-77
2023/04/08 06:41:15;;;;;;;19.30;17.40;;;;;;;4.20;nan;97814.00;1725731;75;25095;-75
2023/04/08 06:43:48;;;;;;;22.80;20.40;;;;;;;4.01;nan;97815.66;1725158;75;24827;-76
2023/04/08 06:46:17;;;;;;;19.40;17.40;;;;;;;4.20;nan;97815.97;1726885;75;24278;-73
2023/04/08 06:48:47;;;;;;;18.10;16.30;;;;;;;4.35;nan;97816.34;1724407;75;25437;-74
2023/04/08 06:51:17;;;;;;;12.60;11.30;;;;;;;4.38;nan;97826.34;1725904;75;25085;-75
2023/04/08 06:53:47;;;;;;;11.30;10.10;;;;;;;4.46;nan;97820.25;1724763;75;24744;-74
2023/04/08 06:56:16;;;;;;;11.00;9.90;;;;;;;4.35;nan;97825.22;1726150;75;24714;-73
2023/04/08 06:58:49;;;;;;;12.70;11.50;;;;;;;4.36;nan;97823.28;1724352;75;25342;-74
2023/04/08 07:01:18;;;;;;;10.70;9.70;;;;;;;4.48;nan;97828.72;1725951;75;24165;-78
2023/04/08 07:03:48;;;;;;;11.30;10.20;;;;;;;4.48;nan;97830.69;1724739;75;25391;-77
2023/04/08 07:06:17;;;;;;;10.50;9.50;;;;;;;4.48;nan;97833.41;1726613;75;24932;-75
2023/04/08 07:08:47;;;;;;;13.10;11.70;;;;;;;4.36;nan;97840.31;1724983;83;24725;-75
2023/04/08 07:11:16;;;;;;;13.30;12.00;;;;;;;4.46;nan;97852.03;1725957;75;24185;-77
2023/04/08 07:13:48;;;;;;;20.10;17.90;;;;;;;4.46;nan;97841.19;1725455;75;24124;-77
2023/04/08 07:16:18;;;;;;;13.20;11.80;;;;;;;4.45;nan;97840.44;1726671;75;25004;-76
2023/04/08 07:18:48;;;;;;;11.60;10.50;;;;;;;4.42;nan;97846.69;1724928;75;24166;-75
2023/04/08 07:21:17;;;;;;;9.20;8.20;;;;;;;4.47;nan;97851.63;1725781;75;24751;-76
2023/04/08 07:23:47;;;;;;;8.50;7.70;;;;;;;4.47;nan;97845.41;1724154;83;24916;-77
2023/04/08 07:26:16;;;;;;;8.40;7.50;;;;;;;4.48;nan;97850.41;1725650;75;24333;-75
2023/04/08 07:28:48;;;;;;;8.70;7.10;;;;;;;4.49;nan;97862.00;1723918;75;24995;-75
2023/04/08 07:31:20;;;;;;;6.50;5.90;;;;;;;4.55;nan;97852.19;1725731;75;25494;-75
2023/04/08 07:33:50;;;;;;;5.90;5.20;;;;;;;4.58;nan;97859.44;1724455;75;24205;-78
2023/04/08 07:36:19;;;;;;;6.00;5.40;;;;;;;4.47;nan;97864.38;1725318;75;24473;-76
2023/04/08 07:38:49;;;;;;;6.70;6.00;;;;;;;4.50;nan;97868.97;1723075;75;24688;-77
2023/04/08 07:41:19;;;;;;;6.20;5.40;;;;;;;4.60;nan;97872.56;1723862;75;24415;-77
2023/04/08 07:43:51;;;;;;;5.60;5.10;;;;;;;4.63;nan;97877.13;1721789;75;24861;-76
2023/04/08 07:46:21;;;;;;;6.00;5.40;;;;;;;4.64;nan;97874.00;1725654;75;25072;-77
2023/04/08 07:48:51;;;;;;;7.50;6.80;;;;;;;4.47;nan;97881.44;1724544;75;24750;-75
2023/04/08 07:51:20;;;;;;;16.30;14.70;;;;;;;4.07;nan;97880.19;1725512;75;24113;-77
2023/04/08 07:53:50;;;;;;;17.00;15.20;;;;;;;4.02;nan;97890.34;1724173;75;24456;-78
2023/04/08 07:56:21;;;;;;;14.80;13.20;;;;;;;4.09;nan;97892.13;1726110;75;24986;-76
2023/04/08 07:58:53;;;;;;;12.20;11.00;;;;;;;4.19;nan;97895.75;1723776;75;25459;-76
2023/04/08 08:01:26;;;;;;;13.30;11.90;;;;;;;4.20;nan;97900.72;1725163;75;25536;-74
2023/04/08 08:03:56;;;;;;;12.30;11.10;;;;;;;4.26;nan;97893.59;1725047;75;24783;-75
2023/04/08 08:06:26;;;;;;;12.20;11.00;;;;;;;4.21;nan;97906.88;1726722;75;24596;-75
2023/04/08 08:08:56;;;;;;;10.90;9.80;;;;;;;4.25;nan;97902.16;1724605;75;24192;-74
2023/04/08 08:11:26;;;;;;;15.10;13.60;;;;;;;3.63;nan;97908.31;1725904;75;24222;-78
2023/04/08 08:13:58;;;;;;;13.30;12.00;;;;;;;4.00;nan;97910.91;1724776;75;25345;-76
2023/04/08 08:16:31;;;;;;;12.10;10.90;;;;;;;4.06;nan;97903.78;1726529;75;25661;-78
2023/04/08 08:19:00;;;;;;;15.60;14.10;;;;;;;3.89;nan;97903.03;1724442;75;24894;-73
2023/04/08 08:21:30;;;;;;;14.10;12.80;;;;;;;3.81;nan;97899.75;1726064;75;24606;-75
2023/04/08 08:24:06;;;;;;;13.50;12.20;;;;;;;3.64;nan;97909.06;1724624;75;25275;-74
2023/04/08 08:26:38;;;;;;;13.10;11.90;;;;;;;3.80;nan;97898.25;1725546;75;24389;-74
2023/04/08 08:29:10;;;;;;;10.70;9.70;;;;;;;4.05;nan;97911.16;1724572;75;24191;-77
2023/04/08 08:31:40;;;;;;;12.70;11.50;;;;;;;3.81;nan;97912.53;1725247;75;24631;-76
2023/04/08 08:34:10;;;;;;;11.80;10.60;;;;;;;3.87;nan;97918.19;1725104;75;24325;-73
2023/04/08 08:36:39;;;;;;;8.80;7.90;;;;;;;4.15;nan;97917.50;1725878;75;25069;-75
2023/04/08 08:39:09;;;;;;;8.80;8.00;;;;;;;4.24;nan;97923.06;1724689;75;25525;-75
2023/04/08 08:41:40;;;;;;;7.50;6.80;;;;;;;4.36;nan;97918.91;1725960;75;24615;-75
2023/04/08 08:44:13;;;;;;;9.10;8.20;;;;;;;4.18;nan;97924.00;1725655;75;24720;-74
2023/04/08 08:46:47;;;;;;;11.20;10.10;;;;;;;4.02;nan;97925.56;1726922;75;24366;-75
2023/04/08 08:49:17;;;;;;;14.10;12.80;;;;;;;3.89;nan;97923.94;1725439;75;25047;-73
2023/04/08 08:51:49;;;;;;;10.60;9.50;;;;;;;4.19;nan;97920.13;1726141;75;24463;-74
2023/04/08 08:54:19;;;;;;;9.10;8.30;;;;;;;4.25;nan;97931.97;1725178;75;25900;-75
2023/04/08 08:56:48;;;;;;;13.70;12.40;;;;;;;4.10;nan;97928.84;1726470;75;24627;-74
2023/04/08 08:59:20;;;;;;;14.00;12.70;;;;;;;4.15;nan;97933.75;1724525;75;24281;-77
2023/04/08 09:01:50;;;;;;;10.60;9.60;;;;;;;4.33;nan;97927.91;1725466;75;24962;-75
2023/04/08 09:04:21;;;;;;;10.40;9.40;;;;;;;4.32;nan;97928.31;1725002;75;25447;-73
2023/04/08 09:07:06;;;;;;;14.50;13.10;;;;;;;4.14;nan;97929.53;1726205;75;24836;-74
2023/04/08 09:09:51;;;;;;;11.80;10.70;;;;;;;4.48;nan;97937.16;1724767;75;24379;-73
2023/04/08 09:12:21;;;;;;;8.00;7.30;;;;;;;4.60;nan;97937.66;1726590;75;24179;-74
2023/04/08 09:15:04;;;;;;;13.70;12.40;;;;;;;4.26;nan;97941.63;1724662;75;24207;-74
2023/04/08 09:17:39;;;;;;;14.70;13.20;;;;;;;4.08;nan;97941.28;1725275;75;24366;-73
2023/04/08 09:20:15;;;;;;;12.20;11.00;;;;;;;4.35;nan;97944.47;1725333;75;24862;-76
2023/04/08 09:23:00;;;;;;;10.70;9.70;;;;;;;4.51;nan;97949.09;1725225;75;24772;-76
2023/04/08 09:25:32;;;;;;;8.00;7.30;;;;;;;4.65;nan;97947.97;1726385;75;25156;-78
2023/04/08 09:28:02;;;;;;;8.90;8.00;;;;;;;4.77;nan;97947.25;1723597;75;24120;-77
2023/04/08 09:30:35;;;;;;;7.00;6.30;;;;;;;4.82;nan;97946.72;1725378;75;24261;-75
2023/04/08 09:33:06;;;;;;;12.40;11.30;;;;;;;4.74;nan;97960.88;1723681;75;24143;-78
2023/04/08 09:35:35;;;;;;;10.10;9.20;;;;;;;4.94;nan;97953.38;1725930;75;24273;-77
2023/04/08 09:38:05;;;;;;;13.40;12.20;;;;;;;4.55;nan;97963.34;1723688;75;24909;-75
2023/04/08 09:40:38;;;;;;;11.40;10.40;;;;;;;4.73;nan;97948.53;1725521;75;24158;-78
2023/04/08 09:43:11;;;;;;;13.30;12.10;;;;;;;4.63;nan;97955.78;1723795;75;25349;-76
2023/04/08 09:45:44;;;;;;;10.40;9.40;;;;;;;4.99;nan;97960.97;1725461;75;25127;-77
2023/04/08 09:48:20;;;;;;;11.50;10.40;;;;;;;4.76;nan;97961.97;1723050;75;27104;-74
2023/04/08 09:50:54;;;;;;;10.70;9.70;;;;;;;4.94;nan;97964.22;1725309;75;24724;-75
2023/04/08 09:53:32;;;;;;;11.90;10.80;;;;;;;4.83;nan;97961.78;1724775;75;24260;-76
2023/04/08 09:56:02;;;;;;;9.70;8.80;;;;;;;5.11;nan;97965.66;1725733;75;25464;-75
2023/04/08 09:58:41;;;;;;;8.60;7.80;;;;;;;5.21;nan;97965.81;1724362;75;25003;-79
2023/04/08 10:01:18;;;;;;;7.60;6.90;;;;;;;5.20;nan;97972.44;1724777;75;24769;-80
2023/04/08 10:03:55;;;;;;;7.00;6.40;;;;;;;5.06;nan;97973.59;1724238;75;24118;-75
2023/04/08 10:06:30;;;;;;;8.00;7.30;;;;;;;5.21;nan;97971.22;1725510;75;24481;-77
2023/04/08 10:09:00;;;;;;;6.20;5.70;;;;;;;5.26;nan;97965.28;1724283;75;24258;-78
2023/04/08 10:11:31;;;;;;;7.20;6.60;;;;;;;5.25;nan;97966.47;1724609;75;24809;-76
2023/04/08 10:14:01;;;;;;;12.70;11.50;;;;;;;5.04;nan;97965.88;1724046;83;24318;-77
2023/04/08 10:16:34;;;;;;;11.40;10.30;;;;;;;5.30;nan;97965.94;1725506;75;25720;-75
2023/04/08 10:19:04;;;;;;;10.10;9.20;;;;;;;5.21;nan;97963.09;1724402;75;25019;-77
2023/04/08 10:21:46;;;;;;;11.90;10.70;;;;;;;5.18;nan;97967.44;1724992;75;25986;-75
2023/04/08 10:24:17;;;;;;;11.10;10.10;;;;;;;5.36;nan;97966.16;1724223;75;24170;-77
2023/04/08 10:26:47;;;;;;;7.60;6.90;;;;;;;5.60;nan;97961.16;1726287;75;24201;-76
2023/04/08 10:29:47;;;;;;;8.90;8.00;;;;;;;5.52;nan;97966.81;1723763;75;24336;-76
2023/04/08 10:32:43;;;;;;;8.90;8.10;;;;;;;5.63;nan;97952.94;1724553;75;24737;-75
2023/04/08 10:35:13;;;;;;;6.60;5.90;;;;;;;5.76;nan;97958.34;1724768;75;24726;-75
2023/04/08 10:37:43;;;;;;;12.60;11.40;;;;;;;5.32;nan;97955.41;1724689;75;24161;-74
2023/04/08 10:40:21;;;;;;;13.10;11.90;;;;;;;5.23;nan;97956.03;1723484;75;25086;-76
2023/04/08 10:42:57;;;;;;;10.80;9.80;;;;;;;5.69;nan;97961.28;1724284;75;24960;-78
2023/04/08 10:45:27;;;;;;;7.00;6.30;;;;;;;5.68;nan;97957.06;1725393;75;25191;-73
2023/04/08 10:48:13;;;;;;;7.10;6.40;;;;;;;5.74;nan;97964.22;1724003;75;24157;-72
2023/04/08 10:50:43;;;;;;;6.90;6.30;;;;;;;5.70;nan;97955.44;1725116;75;25037;-78
2023/04/08 10:53:13;;;;;;;4.80;4.40;;;;;;;5.93;nan;97965.16;1724333;75;24238;-76
2023/04/08 10:55:43;;;;;;;4.70;4.30;;;;;;;5.95;nan;97949.22;1725102;75;26901;-77
2023/04/08 10:58:13;;;;;;;6.00;5.40;;;;;;;5.85;nan;97949.56;1724466;75;24142;-74
2023/04/08 11:00:43;;;;;;;6.10;5.50;;;;;;;6.06;nan;97950.84;1725402;75;25431;-78
2023/04/08 11:03:15;;;;;;;5.60;5.10;;;;;;;6.15;nan;97954.41;1723954;75;24166;-78
2023/04/08 11:05:45;;;;;;;6.80;6.20;;;;;;;5.97;nan;97954.22;1726013;75;24611;-74
2023/04/08 11:08:16;;;;;;;7.20;6.60;;;;;;;5.97;nan;97956.94;1724373;75;25892;-75
2023/04/08 11:10:46;;;;;;;7.20;6.50;;;;;;;6.13;nan;97951.38;1724893;75;25396;-76
2023/04/08 11:13:16;;;;;;;5.70;5.20;;;;;;;6.19;nan;97957.78;1724560;75;25017;-77
2023/04/08 11:15:46;;;;;;;5.20;4.70;;;;;;;6.41;nan;97962.50;1726049;83;24082;-74
2023/04/08 11:18:18;;;;;;;5.90;4.90;;;;;;;6.45;nan;97962.41;1724986;75;24124;-78
2023/04/08 11:20:48;;;;;;;5.90;5.40;;;;;;;6.42;nan;97953.13;1725512;75;24296;-76
2023/04/08 11:23:19;;;;;;;6.10;5.50;;;;;;;6.51;nan;97961.38;1724110;75;24134;-76
2023/04/08 11:25:49;;;;;;;8.20;7.40;;;;;;;6.33;nan;97959.25;1725553;75;24524;-77
2023/04/08 11:28:20;;;;;;;7.20;6.50;;;;;;;6.36;nan;97957.63;1723795;75;24636;-75
2023/04/08 11:30:52;;;;;;;6.30;5.70;;;;;;;6.65;nan;97951.22;1725205;75;25396;-76
2023/04/08 11:33:26;;;;;;;4.70;4.30;;;;;;;6.87;nan;97951.22;1724324;75;24107;-77
2023/04/08 11:35:56;;;;;;;5.40;4.90;;;;;;;6.95;nan;97949.75;1725629;75;24967;-78
2023/04/08 11:38:28;;;;;;;4.50;4.10;;;;;;;7.14;nan;97956.84;1723692;75;24856;-82
2023/04/08 11:40:59;;;;;;;4.40;4.00;;;;;;;7.09;nan;97954.69;1724672;75;24788;-77
2023/04/08 11:43:30;;;;;;;4.70;4.30;;;;;;;7.16;nan;97968.03;1724123;75;24248;-77
2023/04/08 11:46:00;;;;;;;5.40;4.90;;;;;;;6.94;nan;97948.25;1725972;75;24668;-78
2023/04/08 11:48:32;;;;;;;7.40;6.60;;;;;;;6.59;nan;97951.78;1724390;75;24085;-75
2023/04/08 11:51:07;;;;;;;6.80;6.20;;;;;;;6.48;nan;97948.66;1724594;75;25972;-78
2023/04/08 11:53:38;;;;;;;5.70;5.20;;;;;;;6.50;nan;97949.00;1724311;75;25158;-79
2023/04/08 11:56:22;;;;;;;5.90;5.40;;;;;;;6.42;nan;97955.84;1726450;83;24999;-77
2023/04/08 11:58:52;;;;;;;5.00;4.50;;;;;;;6.74;nan;97954.78;1723157;75;25580;-77
2023/04/08 12:01:22;;;;;;;4.50;4.10;;;;;;;6.93;nan;97944.03;1725171;75;24845;-74
2023/04/08 12:04:02;;;;;;;4.30;3.90;;;;;;;6.98;nan;97944.19;1724094;75;24172;-77
2023/04/08 12:06:32;;;;;;;5.30;4.80;;;;;;;6.67;nan;97954.25;1725098;75;25659;-76
2023/04/08 12:09:01;;;;;;;4.50;4.00;;;;;;;6.63;nan;97951.66;1723110;75;24098;-76
2023/04/08 12:11:33;;;;;;;4.70;4.30;;;;;;;6.51;nan;97949.75;1724683;75;24179;-76
2023/04/08 12:14:02;;;;;;;4.50;4.10;;;;;;;6.60;nan;97947.84;1722623;75;25489;-77
2023/04/08 12:16:32;;;;;;;3.10;2.80;;;;;;;6.88;nan;97944.56;1725192;75;25123;-77